Terminal Aerodrome Forecast
Issued by NWS

Home | Current Version | Previous Version | Graphics & Text | Print | Product List | Glossary On
Versions: 1 2 3 4 5 6 7 8 9 10 11 12 13 14 15 16 17 18 19 20
000
FTUS43 KMPX 112300
TAFRNH
TAF
KRNH 112334Z 1200/1224 21006KT P6SM VCSH OVC028
     FM120200 19003KT P6SM BKN030
     FM120600 20003KT 4SM BR SCT030
      TEMPO 1207/1210 2SM BR SCT005
     FM121000 VRB02KT 2SM BR BKN005
     FM121300 29005KT P6SM SCT010 BKN150=

USA.gov is the U.S. government's official web portal to all federal, state and local government web resources and services.